Aviation Digital Data Service (ADDS)

Output produced by METARs form (0636 UTC 27 March 2017)
found at http://www.aviationweather.gov/adds/metars/
 
VDSR 270600Z 34008KT 9000 -SHRA BKN015 FEW017CB OVC040 28/24 Q1013 CB:N/E
TAF VDSR 270500Z 2706/2724 08010KT 9999 SCT017 SCT040 
     TEMPO 2707/2711 5000 TSRA SCT015 FEW017CB BKN040